sensor_id;sensor_type;location;lat;lon;timestamp;P1;durP1;ratioP1;P2;durP2;ratioP2
58756;SDS011;44527;47.460;19.016;2022-10-14T00:01:29;26.60;;;14.02;;
58756;SDS011;44527;47.460;19.016;2022-10-14T00:04:34;28.55;;;15.18;;
58756;SDS011;44527;47.460;19.016;2022-10-14T00:07:37;37.55;;;15.60;;
58756;SDS011;44527;47.460;19.016;2022-10-14T00:10:40;32.08;;;15.27;;
58756;SDS011;44527;47.460;19.016;2022-10-14T00:13:43;30.05;;;14.82;;
58756;SDS011;44527;47.460;19.016;2022-10-14T00:16:47;28.55;;;15.52;;
58756;SDS011;44527;47.460;19.016;2022-10-14T00:19:53;29.55;;;14.77;;
58756;SDS011;44527;47.460;19.016;2022-10-14T00:22:55;30.17;;;14.68;;
58756;SDS011;44527;47.460;19.016;2022-10-14T00:26:00;33.67;;;14.73;;
58756;SDS011;44527;47.460;19.016;2022-10-14T00:29:05;29.58;;;15.70;;
58756;SDS011;44527;47.460;19.016;2022-10-14T00:32:10;24.83;;;13.80;;
58756;SDS011;44527;47.460;19.016;2022-10-14T00:35:13;30.02;;;14.57;;
58756;SDS011;44527;47.460;19.016;2022-10-14T00:38:17;30.80;;;14.45;;
58756;SDS011;44527;47.460;19.016;2022-10-14T00:41:28;33.00;;;14.98;;
58756;SDS011;44527;47.460;19.016;2022-10-14T00:47:37;28.20;;;14.32;;
58756;SDS011;44527;47.460;19.016;2022-10-14T00:50:42;29.33;;;14.52;;
58756;SDS011;44527;47.460;19.016;2022-10-14T00:53:48;28.42;;;15.10;;
58756;SDS011;44527;47.460;19.016;2022-10-14T00:56:52;33.05;;;14.32;;
58756;SDS011;44527;47.460;19.016;2022-10-14T01:00:04;30.27;;;15.10;;
58756;SDS011;44527;47.460;19.016;2022-10-14T01:03:16;27.60;;;13.73;;
58756;SDS011;44527;47.460;19.016;2022-10-14T01:10:07;27.67;;;13.98;;
58756;SDS011;44527;47.460;19.016;2022-10-14T01:13:33;27.15;;;13.57;;
58756;SDS011;44527;47.460;19.016;2022-10-14T01:17:15;25.12;;;12.82;;
58756;SDS011;44527;47.460;19.016;2022-10-14T01:30:36;26.25;;;13.65;;
58756;SDS011;44527;47.460;19.016;2022-10-14T01:33:51;25.90;;;13.75;;
58756;SDS011;44527;47.460;19.016;2022-10-14T01:37:04;32.63;;;16.15;;
58756;SDS011;44527;47.460;19.016;2022-10-14T01:40:19;37.47;;;14.75;;
58756;SDS011;44527;47.460;19.016;2022-10-14T01:43:29;30.67;;;12.73;;
58756;SDS011;44527;47.460;19.016;2022-10-14T01:46:34;29.17;;;14.02;;
58756;SDS011;44527;47.460;19.016;2022-10-14T01:49:44;28.42;;;13.40;;
58756;SDS011;44527;47.460;19.016;2022-10-14T01:52:55;29.33;;;13.50;;
58756;SDS011;44527;47.460;19.016;2022-10-14T01:56:02;26.55;;;12.80;;
58756;SDS011;44527;47.460;19.016;2022-10-14T01:59:07;29.77;;;14.13;;
58756;SDS011;44527;47.460;19.016;2022-10-14T02:02:11;31.77;;;12.50;;
58756;SDS011;44527;47.460;19.016;2022-10-14T02:05:21;25.98;;;14.10;;
58756;SDS011;44527;47.460;19.016;2022-10-14T02:08:33;24.40;;;13.07;;
58756;SDS011;44527;47.460;19.016;2022-10-14T02:15:18;27.95;;;12.93;;
58756;SDS011;44527;47.460;19.016;2022-10-14T02:18:28;26.35;;;13.48;;
58756;SDS011;44527;47.460;19.016;2022-10-14T02:21:41;23.00;;;13.07;;
58756;SDS011;44527;47.460;19.016;2022-10-14T02:24:49;25.10;;;13.60;;
58756;SDS011;44527;47.460;19.016;2022-10-14T02:27:57;26.48;;;12.95;;
58756;SDS011;44527;47.460;19.016;2022-10-14T02:31:07;31.50;;;14.63;;
58756;SDS011;44527;47.460;19.016;2022-10-14T02:34:17;27.02;;;14.57;;
58756;SDS011;44527;47.460;19.016;2022-10-14T02:37:27;30.85;;;14.15;;
58756;SDS011;44527;47.460;19.016;2022-10-14T02:40:38;26.30;;;12.70;;
58756;SDS011;44527;47.460;19.016;2022-10-14T02:43:44;31.02;;;14.00;;
58756;SDS011;44527;47.460;19.016;2022-10-14T02:46:47;24.23;;;12.60;;
58756;SDS011;44527;47.460;19.016;2022-10-14T02:49:53;26.25;;;13.27;;
58756;SDS011;44527;47.460;19.016;2022-10-14T02:52:57;20.85;;;11.55;;
58756;SDS011;44527;47.460;19.016;2022-10-14T02:56:00;23.27;;;12.23;;
58756;SDS011;44527;47.460;19.016;2022-10-14T02:59:03;26.25;;;11.65;;
58756;SDS011;44527;47.460;19.016;2022-10-14T03:02:06;23.42;;;12.40;;
58756;SDS011;44527;47.460;19.016;2022-10-14T03:05:13;25.65;;;11.48;;
58756;SDS011;44527;47.460;19.016;2022-10-14T03:08:15;25.42;;;12.93;;
58756;SDS011;44527;47.460;19.016;2022-10-14T03:11:19;24.10;;;13.32;;
58756;SDS011;44527;47.460;19.016;2022-10-14T03:14:21;25.75;;;12.50;;
58756;SDS011;44527;47.460;19.016;2022-10-14T03:17:26;25.92;;;13.15;;
58756;SDS011;44527;47.460;19.016;2022-10-14T03:20:33;25.27;;;12.60;;
58756;SDS011;44527;47.460;19.016;2022-10-14T03:23:35;33.90;;;12.30;;
58756;SDS011;44527;47.460;19.016;2022-10-14T03:26:41;26.75;;;11.98;;
58756;SDS011;44527;47.460;19.016;2022-10-14T03:29:44;24.95;;;12.73;;
58756;SDS011;44527;47.460;19.016;2022-10-14T03:32:49;24.35;;;12.52;;
58756;SDS011;44527;47.460;19.016;2022-10-14T03:35:53;32.42;;;13.45;;
58756;SDS011;44527;47.460;19.016;2022-10-14T03:38:58;24.23;;;11.45;;
58756;SDS011;44527;47.460;19.016;2022-10-14T03:42:04;22.50;;;11.75;;
58756;SDS011;44527;47.460;19.016;2022-10-14T03:45:07;28.40;;;12.85;;
58756;SDS011;44527;47.460;19.016;2022-10-14T03:48:10;24.17;;;12.88;;
58756;SDS011;44527;47.460;19.016;2022-10-14T03:51:13;27.25;;;12.75;;
58756;SDS011;44527;47.460;19.016;2022-10-14T03:54:17;26.95;;;12.05;;
58756;SDS011;44527;47.460;19.016;2022-10-14T03:57:19;21.17;;;12.00;;
58756;SDS011;44527;47.460;19.016;2022-10-14T04:00:22;25.80;;;11.80;;
58756;SDS011;44527;47.460;19.016;2022-10-14T04:03:26;29.05;;;12.80;;
58756;SDS011;44527;47.460;19.016;2022-10-14T04:06:29;30.35;;;12.65;;
58756;SDS011;44527;47.460;19.016;2022-10-14T04:09:33;29.42;;;12.85;;
58756;SDS011;44527;47.460;19.016;2022-10-14T04:12:36;26.95;;;12.02;;
58756;SDS011;44527;47.460;19.016;2022-10-14T04:15:41;24.12;;;11.63;;
58756;SDS011;44527;47.460;19.016;2022-10-14T04:18:44;25.67;;;12.88;;
58756;SDS011;44527;47.460;19.016;2022-10-14T04:21:47;22.62;;;12.40;;
58756;SDS011;44527;47.460;19.016;2022-10-14T04:24:50;24.98;;;12.60;;
58756;SDS011;44527;47.460;19.016;2022-10-14T04:27:53;27.30;;;12.45;;
58756;SDS011;44527;47.460;19.016;2022-10-14T04:31:00;23.52;;;11.88;;
58756;SDS011;44527;47.460;19.016;2022-10-14T04:34:05;24.67;;;13.32;;
58756;SDS011;44527;47.460;19.016;2022-10-14T04:37:12;21.83;;;11.82;;
58756;SDS011;44527;47.460;19.016;2022-10-14T04:40:15;25.35;;;11.65;;
58756;SDS011;44527;47.460;19.016;2022-10-14T04:43:18;23.25;;;11.80;;
58756;SDS011;44527;47.460;19.016;2022-10-14T04:46:21;28.83;;;12.85;;
58756;SDS011;44527;47.460;19.016;2022-10-14T04:49:23;23.77;;;12.30;;
58756;SDS011;44527;47.460;19.016;2022-10-14T04:52:41;25.67;;;12.68;;
58756;SDS011;44527;47.460;19.016;2022-10-14T04:55:43;27.60;;;12.60;;
58756;SDS011;44527;47.460;19.016;2022-10-14T04:58:47;25.02;;;12.88;;
58756;SDS011;44527;47.460;19.016;2022-10-14T05:01:50;26.02;;;13.02;;
58756;SDS011;44527;47.460;19.016;2022-10-14T05:04:53;25.52;;;13.23;;
58756;SDS011;44527;47.460;19.016;2022-10-14T05:07:55;25.58;;;13.45;;
58756;SDS011;44527;47.460;19.016;2022-10-14T05:10:58;55.47;;;13.38;;
58756;SDS011;44527;47.460;19.016;2022-10-14T05:14:04;29.83;;;13.18;;
58756;SDS011;44527;47.460;19.016;2022-10-14T05:17:06;30.08;;;13.55;;
58756;SDS011;44527;47.460;19.016;2022-10-14T05:20:10;24.15;;;12.20;;
58756;SDS011;44527;47.460;19.016;2022-10-14T05:23:13;32.72;;;11.93;;
58756;SDS011;44527;47.460;19.016;2022-10-14T05:26:20;29.95;;;12.55;;
58756;SDS011;44527;47.460;19.016;2022-10-14T05:29:28;24.50;;;12.15;;
58756;SDS011;44527;47.460;19.016;2022-10-14T05:32:39;29.73;;;13.50;;
58756;SDS011;44527;47.460;19.016;2022-10-14T05:35:53;30.67;;;13.95;;
58756;SDS011;44527;47.460;19.016;2022-10-14T05:39:01;31.83;;;14.17;;
58756;SDS011;44527;47.460;19.016;2022-10-14T05:42:04;32.60;;;13.90;;
58756;SDS011;44527;47.460;19.016;2022-10-14T05:45:08;33.85;;;14.35;;
58756;SDS011;44527;47.460;19.016;2022-10-14T05:48:15;30.80;;;13.20;;
58756;SDS011;44527;47.460;19.016;2022-10-14T05:51:19;32.47;;;15.05;;
58756;SDS011;44527;47.460;19.016;2022-10-14T05:54:24;31.65;;;15.60;;
58756;SDS011;44527;47.460;19.016;2022-10-14T05:57:27;29.23;;;14.75;;
58756;SDS011;44527;47.460;19.016;2022-10-14T06:00:29;34.58;;;14.55;;
58756;SDS011;44527;47.460;19.016;2022-10-14T06:03:33;33.88;;;15.50;;
58756;SDS011;44527;47.460;19.016;2022-10-14T06:06:36;28.15;;;14.48;;
58756;SDS011;44527;47.460;19.016;2022-10-14T06:09:39;28.48;;;15.23;;
58756;SDS011;44527;47.460;19.016;2022-10-14T06:12:43;38.30;;;15.82;;
58756;SDS011;44527;47.460;19.016;2022-10-14T06:15:45;31.87;;;14.00;;
58756;SDS011;44527;47.460;19.016;2022-10-14T06:18:47;29.73;;;14.70;;
58756;SDS011;44527;47.460;19.016;2022-10-14T06:21:55;32.25;;;15.38;;
58756;SDS011;44527;47.460;19.016;2022-10-14T06:24:58;27.45;;;14.60;;
58756;SDS011;44527;47.460;19.016;2022-10-14T06:28:05;29.60;;;14.07;;
58756;SDS011;44527;47.460;19.016;2022-10-14T06:31:07;30.83;;;15.32;;
58756;SDS011;44527;47.460;19.016;2022-10-14T06:34:10;33.45;;;15.00;;
58756;SDS011;44527;47.460;19.016;2022-10-14T06:37:12;39.85;;;16.20;;
58756;SDS011;44527;47.460;19.016;2022-10-14T06:40:15;35.83;;;17.70;;
58756;SDS011;44527;47.460;19.016;2022-10-14T06:43:20;40.10;;;18.77;;
58756;SDS011;44527;47.460;19.016;2022-10-14T06:46:23;32.78;;;18.10;;
58756;SDS011;44527;47.460;19.016;2022-10-14T06:49:26;54.92;;;17.90;;
58756;SDS011;44527;47.460;19.016;2022-10-14T06:52:28;43.67;;;17.37;;
58756;SDS011;44527;47.460;19.016;2022-10-14T06:55:30;48.95;;;17.27;;
58756;SDS011;44527;47.460;19.016;2022-10-14T06:58:33;32.55;;;17.42;;
58756;SDS011;44527;47.460;19.016;2022-10-14T07:01:35;37.25;;;17.05;;
58756;SDS011;44527;47.460;19.016;2022-10-14T07:04:38;32.05;;;17.00;;
58756;SDS011;44527;47.460;19.016;2022-10-14T07:07:41;41.58;;;17.52;;
58756;SDS011;44527;47.460;19.016;2022-10-14T07:10:45;36.88;;;17.23;;
58756;SDS011;44527;47.460;19.016;2022-10-14T07:13:48;37.78;;;17.30;;
58756;SDS011;44527;47.460;19.016;2022-10-14T07:16:51;34.90;;;16.85;;
58756;SDS011;44527;47.460;19.016;2022-10-14T07:19:54;35.35;;;16.83;;
58756;SDS011;44527;47.460;19.016;2022-10-14T07:22:56;34.20;;;16.48;;
58756;SDS011;44527;47.460;19.016;2022-10-14T07:25:59;36.35;;;17.30;;
58756;SDS011;44527;47.460;19.016;2022-10-14T07:29:03;35.88;;;16.92;;
58756;SDS011;44527;47.460;19.016;2022-10-14T07:32:06;35.30;;;16.83;;
58756;SDS011;44527;47.460;19.016;2022-10-14T07:35:09;32.30;;;15.95;;
58756;SDS011;44527;47.460;19.016;2022-10-14T07:38:12;31.62;;;15.48;;
58756;SDS011;44527;47.460;19.016;2022-10-14T07:41:16;26.73;;;14.85;;
58756;SDS011;44527;47.460;19.016;2022-10-14T07:44:20;33.70;;;14.57;;
58756;SDS011;44527;47.460;19.016;2022-10-14T07:47:28;32.97;;;16.23;;
58756;SDS011;44527;47.460;19.016;2022-10-14T07:50:30;30.55;;;16.83;;
58756;SDS011;44527;47.460;19.016;2022-10-14T07:53:33;26.25;;;15.25;;
58756;SDS011;44527;47.460;19.016;2022-10-14T07:56:36;35.10;;;15.50;;
58756;SDS011;44527;47.460;19.016;2022-10-14T07:59:41;31.67;;;14.35;;
58756;SDS011;44527;47.460;19.016;2022-10-14T08:02:44;30.17;;;16.30;;
58756;SDS011;44527;47.460;19.016;2022-10-14T08:05:47;28.73;;;14.77;;
58756;SDS011;44527;47.460;19.016;2022-10-14T08:08:53;29.33;;;15.57;;
58756;SDS011;44527;47.460;19.016;2022-10-14T08:11:58;31.45;;;14.90;;
58756;SDS011;44527;47.460;19.016;2022-10-14T08:15:00;31.37;;;15.27;;
58756;SDS011;44527;47.460;19.016;2022-10-14T08:18:03;33.35;;;16.58;;
58756;SDS011;44527;47.460;19.016;2022-10-14T08:21:07;38.25;;;16.25;;
58756;SDS011;44527;47.460;19.016;2022-10-14T08:24:09;26.62;;;14.87;;
58756;SDS011;44527;47.460;19.016;2022-10-14T08:27:11;25.62;;;14.52;;
58756;SDS011;44527;47.460;19.016;2022-10-14T08:30:14;36.13;;;15.07;;
58756;SDS011;44527;47.460;19.016;2022-10-14T08:33:16;31.50;;;15.48;;
58756;SDS011;44527;47.460;19.016;2022-10-14T08:36:19;29.58;;;14.30;;
58756;SDS011;44527;47.460;19.016;2022-10-14T08:39:21;25.55;;;13.70;;
58756;SDS011;44527;47.460;19.016;2022-10-14T08:46:12;26.85;;;14.35;;
58756;SDS011;44527;47.460;19.016;2022-10-14T08:53:05;29.77;;;14.80;;
58756;SDS011;44527;47.460;19.016;2022-10-14T08:56:16;30.98;;;14.27;;
58756;SDS011;44527;47.460;19.016;2022-10-14T08:59:20;31.83;;;15.85;;
58756;SDS011;44527;47.460;19.016;2022-10-14T09:02:36;36.63;;;16.55;;
58756;SDS011;44527;47.460;19.016;2022-10-14T09:05:45;35.50;;;15.80;;
58756;SDS011;44527;47.460;19.016;2022-10-14T09:08:55;31.40;;;15.13;;
58756;SDS011;44527;47.460;19.016;2022-10-14T09:12:02;36.75;;;16.60;;
58756;SDS011;44527;47.460;19.016;2022-10-14T09:15:15;33.22;;;15.18;;
58756;SDS011;44527;47.460;19.016;2022-10-14T09:18:21;27.92;;;16.58;;
58756;SDS011;44527;47.460;19.016;2022-10-14T09:21:32;32.10;;;17.08;;
58756;SDS011;44527;47.460;19.016;2022-10-14T09:24:52;32.80;;;16.92;;
58756;SDS011;44527;47.460;19.016;2022-10-14T09:27:55;32.60;;;17.15;;
58756;SDS011;44527;47.460;19.016;2022-10-14T09:30:57;36.38;;;17.45;;
58756;SDS011;44527;47.460;19.016;2022-10-14T09:33:59;33.58;;;15.52;;
58756;SDS011;44527;47.460;19.016;2022-10-14T09:37:05;34.90;;;17.62;;
58756;SDS011;44527;47.460;19.016;2022-10-14T09:40:34;37.80;;;18.37;;
58756;SDS011;44527;47.460;19.016;2022-10-14T09:47:26;31.45;;;16.75;;
58756;SDS011;44527;47.460;19.016;2022-10-14T09:50:46;31.27;;;18.40;;
58756;SDS011;44527;47.460;19.016;2022-10-14T09:53:54;37.53;;;17.52;;
58756;SDS011;44527;47.460;19.016;2022-10-14T09:57:01;35.78;;;17.05;;
58756;SDS011;44527;47.460;19.016;2022-10-14T10:00:22;31.45;;;16.02;;
58756;SDS011;44527;47.460;19.016;2022-10-14T10:03:30;36.70;;;16.92;;
58756;SDS011;44527;47.460;19.016;2022-10-14T10:06:34;25.62;;;15.15;;
58756;SDS011;44527;47.460;19.016;2022-10-14T10:09:53;28.83;;;16.62;;
58756;SDS011;44527;47.460;19.016;2022-10-14T10:12:57;25.12;;;14.48;;
58756;SDS011;44527;47.460;19.016;2022-10-14T10:16:01;32.85;;;15.00;;
58756;SDS011;44527;47.460;19.016;2022-10-14T10:22:33;27.08;;;15.85;;
58756;SDS011;44527;47.460;19.016;2022-10-14T10:25:38;30.37;;;15.02;;
58756;SDS011;44527;47.460;19.016;2022-10-14T10:28:45;39.15;;;15.57;;
58756;SDS011;44527;47.460;19.016;2022-10-14T10:32:10;29.27;;;15.88;;
58756;SDS011;44527;47.460;19.016;2022-10-14T10:35:32;33.58;;;15.52;;
58756;SDS011;44527;47.460;19.016;2022-10-14T10:39:04;27.55;;;15.00;;
58756;SDS011;44527;47.460;19.016;2022-10-14T10:42:33;25.15;;;15.77;;
58756;SDS011;44527;47.460;19.016;2022-10-14T10:56:45;24.52;;;14.13;;
58756;SDS011;44527;47.460;19.016;2022-10-14T10:59:55;25.12;;;13.73;;
58756;SDS011;44527;47.460;19.016;2022-10-14T11:03:09;38.45;;;14.02;;
58756;SDS011;44527;47.460;19.016;2022-10-14T11:06:37;26.17;;;14.23;;
58756;SDS011;44527;47.460;19.016;2022-10-14T11:10:16;24.37;;;13.62;;
58756;SDS011;44527;47.460;19.016;2022-10-14T11:17:05;21.87;;;13.13;;
58756;SDS011;44527;47.460;19.016;2022-10-14T11:23:48;22.75;;;12.37;;
58756;SDS011;44527;47.460;19.016;2022-10-14T11:27:12;29.48;;;14.07;;
58756;SDS011;44527;47.460;19.016;2022-10-14T11:30:39;20.90;;;12.23;;
58756;SDS011;44527;47.460;19.016;2022-10-14T11:41:12;17.65;;;10.55;;
58756;SDS011;44527;47.460;19.016;2022-10-14T11:44:36;25.60;;;13.57;;
58756;SDS011;44527;47.460;19.016;2022-10-14T11:47:39;25.70;;;13.25;;
58756;SDS011;44527;47.460;19.016;2022-10-14T11:50:46;24.73;;;13.07;;
58756;SDS011;44527;47.460;19.016;2022-10-14T11:57:27;21.48;;;13.32;;
58756;SDS011;44527;47.460;19.016;2022-10-14T12:00:42;27.02;;;12.82;;
58756;SDS011;44527;47.460;19.016;2022-10-14T12:07:24;28.33;;;13.95;;
58756;SDS011;44527;47.460;19.016;2022-10-14T12:10:34;26.75;;;15.35;;
58756;SDS011;44527;47.460;19.016;2022-10-14T12:13:47;25.60;;;15.60;;
58756;SDS011;44527;47.460;19.016;2022-10-14T12:16:53;29.05;;;16.30;;
58756;SDS011;44527;47.460;19.016;2022-10-14T12:19:57;40.05;;;16.37;;
58756;SDS011;44527;47.460;19.016;2022-10-14T12:23:10;26.23;;;15.23;;
58756;SDS011;44527;47.460;19.016;2022-10-14T12:29:24;26.67;;;14.57;;
58756;SDS011;44527;47.460;19.016;2022-10-14T12:32:30;34.50;;;16.58;;
58756;SDS011;44527;47.460;19.016;2022-10-14T12:39:32;28.70;;;15.18;;
58756;SDS011;44527;47.460;19.016;2022-10-14T12:42:37;32.83;;;17.35;;
58756;SDS011;44527;47.460;19.016;2022-10-14T12:46:13;24.65;;;15.60;;
58756;SDS011;44527;47.460;19.016;2022-10-14T12:49:29;25.48;;;15.77;;
58756;SDS011;44527;47.460;19.016;2022-10-14T12:52:35;23.27;;;15.35;;
58756;SDS011;44527;47.460;19.016;2022-10-14T12:55:50;27.77;;;16.25;;
58756;SDS011;44527;47.460;19.016;2022-10-14T12:59:00;23.73;;;15.15;;
58756;SDS011;44527;47.460;19.016;2022-10-14T13:05:35;30.77;;;16.08;;
58756;SDS011;44527;47.460;19.016;2022-10-14T13:09:09;28.52;;;16.08;;
58756;SDS011;44527;47.460;19.016;2022-10-14T13:12:37;35.92;;;17.83;;
58756;SDS011;44527;47.460;19.016;2022-10-14T13:15:50;23.65;;;16.45;;
58756;SDS011;44527;47.460;19.016;2022-10-14T13:19:02;27.55;;;16.20;;
58756;SDS011;44527;47.460;19.016;2022-10-14T13:25:32;24.02;;;16.27;;
58756;SDS011;44527;47.460;19.016;2022-10-14T13:28:37;27.98;;;17.52;;
58756;SDS011;44527;47.460;19.016;2022-10-14T13:32:05;27.20;;;17.02;;
58756;SDS011;44527;47.460;19.016;2022-10-14T13:35:32;28.65;;;16.80;;
58756;SDS011;44527;47.460;19.016;2022-10-14T13:38:44;29.00;;;16.87;;
58756;SDS011;44527;47.460;19.016;2022-10-14T13:41:55;27.35;;;16.58;;
58756;SDS011;44527;47.460;19.016;2022-10-14T13:45:02;36.13;;;16.75;;
58756;SDS011;44527;47.460;19.016;2022-10-14T13:48:11;24.27;;;15.80;;
58756;SDS011;44527;47.460;19.016;2022-10-14T13:51:27;24.48;;;16.40;;
58756;SDS011;44527;47.460;19.016;2022-10-14T13:54:44;28.73;;;18.12;;
58756;SDS011;44527;47.460;19.016;2022-10-14T14:01:15;31.02;;;17.65;;
58756;SDS011;44527;47.460;19.016;2022-10-14T14:04:24;28.48;;;16.98;;
58756;SDS011;44527;47.460;19.016;2022-10-14T14:07:29;26.12;;;16.15;;
58756;SDS011;44527;47.460;19.016;2022-10-14T14:14:20;31.37;;;16.20;;
58756;SDS011;44527;47.460;19.016;2022-10-14T14:17:27;25.92;;;15.52;;
58756;SDS011;44527;47.460;19.016;2022-10-14T14:20:34;27.75;;;17.25;;
58756;SDS011;44527;47.460;19.016;2022-10-14T14:23:49;30.20;;;16.62;;
58756;SDS011;44527;47.460;19.016;2022-10-14T14:26:52;29.52;;;17.30;;
58756;SDS011;44527;47.460;19.016;2022-10-14T14:29:57;32.88;;;17.35;;
58756;SDS011;44527;47.460;19.016;2022-10-14T14:33:00;26.90;;;17.00;;
58756;SDS011;44527;47.460;19.016;2022-10-14T14:36:05;34.10;;;17.05;;
58756;SDS011;44527;47.460;19.016;2022-10-14T14:39:28;31.25;;;17.02;;
58756;SDS011;44527;47.460;19.016;2022-10-14T14:42:32;29.60;;;17.20;;
58756;SDS011;44527;47.460;19.016;2022-10-14T14:45:41;30.08;;;17.50;;
58756;SDS011;44527;47.460;19.016;2022-10-14T14:48:50;30.23;;;17.15;;
58756;SDS011;44527;47.460;19.016;2022-10-14T14:51:55;29.80;;;17.70;;
58756;SDS011;44527;47.460;19.016;2022-10-14T14:54:59;44.45;;;19.52;;
58756;SDS011;44527;47.460;19.016;2022-10-14T14:58:01;33.95;;;17.20;;
58756;SDS011;44527;47.460;19.016;2022-10-14T15:01:06;29.63;;;17.48;;
58756;SDS011;44527;47.460;19.016;2022-10-14T15:04:26;25.40;;;16.58;;
58756;SDS011;44527;47.460;19.016;2022-10-14T15:07:31;25.20;;;16.90;;
58756;SDS011;44527;47.460;19.016;2022-10-14T15:10:35;28.05;;;16.85;;
58756;SDS011;44527;47.460;19.016;2022-10-14T15:16:42;30.95;;;16.98;;
58756;SDS011;44527;47.460;19.016;2022-10-14T15:20:19;27.75;;;16.17;;
58756;SDS011;44527;47.460;19.016;2022-10-14T15:23:40;25.73;;;16.73;;
58756;SDS011;44527;47.460;19.016;2022-10-14T15:26:42;28.73;;;17.02;;
58756;SDS011;44527;47.460;19.016;2022-10-14T15:30:06;26.40;;;17.08;;
58756;SDS011;44527;47.460;19.016;2022-10-14T15:33:28;28.80;;;17.67;;
58756;SDS011;44527;47.460;19.016;2022-10-14T15:36:31;31.87;;;18.48;;
58756;SDS011;44527;47.460;19.016;2022-10-14T15:39:35;30.52;;;17.40;;
58756;SDS011;44527;47.460;19.016;2022-10-14T15:42:37;33.42;;;18.55;;
58756;SDS011;44527;47.460;19.016;2022-10-14T15:45:41;32.58;;;18.85;;
58756;SDS011;44527;47.460;19.016;2022-10-14T15:48:53;31.83;;;19.30;;
58756;SDS011;44527;47.460;19.016;2022-10-14T15:51:59;42.72;;;19.30;;
58756;SDS011;44527;47.460;19.016;2022-10-14T15:55:05;32.20;;;18.83;;
58756;SDS011;44527;47.460;19.016;2022-10-14T15:58:20;32.83;;;18.87;;
58756;SDS011;44527;47.460;19.016;2022-10-14T16:01:23;34.90;;;19.65;;
58756;SDS011;44527;47.460;19.016;2022-10-14T16:04:25;33.83;;;19.30;;
58756;SDS011;44527;47.460;19.016;2022-10-14T16:07:29;36.35;;;21.02;;
58756;SDS011;44527;47.460;19.016;2022-10-14T16:10:32;39.95;;;22.30;;
58756;SDS011;44527;47.460;19.016;2022-10-14T16:13:35;38.05;;;20.50;;
58756;SDS011;44527;47.460;19.016;2022-10-14T16:16:42;32.15;;;19.90;;
58756;SDS011;44527;47.460;19.016;2022-10-14T16:19:47;34.67;;;19.52;;
58756;SDS011;44527;47.460;19.016;2022-10-14T16:22:50;33.70;;;18.95;;
58756;SDS011;44527;47.460;19.016;2022-10-14T16:25:52;39.00;;;20.08;;
58756;SDS011;44527;47.460;19.016;2022-10-14T16:28:55;46.15;;;21.17;;
58756;SDS011;44527;47.460;19.016;2022-10-14T16:31:57;41.78;;;21.10;;
58756;SDS011;44527;47.460;19.016;2022-10-14T16:35:00;42.22;;;21.15;;
58756;SDS011;44527;47.460;19.016;2022-10-14T16:38:02;37.88;;;21.60;;
58756;SDS011;44527;47.460;19.016;2022-10-14T16:41:04;51.78;;;22.37;;
58756;SDS011;44527;47.460;19.016;2022-10-14T16:44:09;38.88;;;21.52;;
58756;SDS011;44527;47.460;19.016;2022-10-14T16:47:26;36.33;;;20.83;;
58756;SDS011;44527;47.460;19.016;2022-10-14T16:50:29;42.88;;;21.05;;
58756;SDS011;44527;47.460;19.016;2022-10-14T16:53:31;45.50;;;22.65;;
58756;SDS011;44527;47.460;19.016;2022-10-14T16:56:45;36.15;;;21.10;;
58756;SDS011;44527;47.460;19.016;2022-10-14T17:02:55;40.35;;;20.90;;
58756;SDS011;44527;47.460;19.016;2022-10-14T17:05:58;43.22;;;21.77;;
58756;SDS011;44527;47.460;19.016;2022-10-14T17:09:00;35.95;;;21.15;;
58756;SDS011;44527;47.460;19.016;2022-10-14T17:12:03;38.25;;;21.33;;
58756;SDS011;44527;47.460;19.016;2022-10-14T17:15:12;38.10;;;22.98;;
58756;SDS011;44527;47.460;19.016;2022-10-14T17:18:16;42.33;;;23.55;;
58756;SDS011;44527;47.460;19.016;2022-10-14T17:21:21;48.00;;;23.42;;
58756;SDS011;44527;47.460;19.016;2022-10-14T17:24:25;41.13;;;25.12;;
58756;SDS011;44527;47.460;19.016;2022-10-14T17:27:27;45.97;;;24.70;;
58756;SDS011;44527;47.460;19.016;2022-10-14T17:30:29;53.05;;;24.52;;
58756;SDS011;44527;47.460;19.016;2022-10-14T17:33:36;48.85;;;25.48;;
58756;SDS011;44527;47.460;19.016;2022-10-14T17:36:39;46.22;;;24.55;;
58756;SDS011;44527;47.460;19.016;2022-10-14T17:39:43;46.55;;;24.05;;
58756;SDS011;44527;47.460;19.016;2022-10-14T17:42:45;47.03;;;24.37;;
58756;SDS011;44527;47.460;19.016;2022-10-14T17:45:47;57.47;;;25.12;;
58756;SDS011;44527;47.460;19.016;2022-10-14T17:48:52;49.25;;;26.40;;
58756;SDS011;44527;47.460;19.016;2022-10-14T17:51:57;48.42;;;26.58;;
58756;SDS011;44527;47.460;19.016;2022-10-14T17:55:03;51.53;;;26.87;;
58756;SDS011;44527;47.460;19.016;2022-10-14T17:58:06;54.90;;;26.52;;
58756;SDS011;44527;47.460;19.016;2022-10-14T18:01:09;46.17;;;25.60;;
58756;SDS011;44527;47.460;19.016;2022-10-14T18:04:14;46.97;;;26.77;;
58756;SDS011;44527;47.460;19.016;2022-10-14T18:07:16;48.97;;;26.58;;
58756;SDS011;44527;47.460;19.016;2022-10-14T18:10:23;45.72;;;25.62;;
58756;SDS011;44527;47.460;19.016;2022-10-14T18:13:25;50.55;;;26.15;;
58756;SDS011;44527;47.460;19.016;2022-10-14T18:16:29;52.03;;;26.00;;
58756;SDS011;44527;47.460;19.016;2022-10-14T18:19:34;45.40;;;24.80;;
58756;SDS011;44527;47.460;19.016;2022-10-14T18:22:36;49.33;;;26.83;;
58756;SDS011;44527;47.460;19.016;2022-10-14T18:25:39;55.12;;;27.42;;
58756;SDS011;44527;47.460;19.016;2022-10-14T18:28:42;45.03;;;25.20;;
58756;SDS011;44527;47.460;19.016;2022-10-14T18:31:50;46.20;;;24.80;;
58756;SDS011;44527;47.460;19.016;2022-10-14T18:34:54;43.38;;;23.80;;
58756;SDS011;44527;47.460;19.016;2022-10-14T18:37:57;51.05;;;26.75;;
58756;SDS011;44527;47.460;19.016;2022-10-14T18:41:01;70.22;;;28.27;;
58756;SDS011;44527;47.460;19.016;2022-10-14T18:44:05;62.95;;;30.80;;
58756;SDS011;44527;47.460;19.016;2022-10-14T18:47:08;86.47;;;40.12;;
58756;SDS011;44527;47.460;19.016;2022-10-14T18:50:10;99.30;;;47.55;;
58756;SDS011;44527;47.460;19.016;2022-10-14T18:53:13;107.47;;;47.08;;
58756;SDS011;44527;47.460;19.016;2022-10-14T18:56:22;87.22;;;41.50;;
58756;SDS011;44527;47.460;19.016;2022-10-14T18:59:27;81.57;;;38.63;;
58756;SDS011;44527;47.460;19.016;2022-10-14T19:02:30;84.35;;;36.40;;
58756;SDS011;44527;47.460;19.016;2022-10-14T19:05:36;73.35;;;34.50;;
58756;SDS011;44527;47.460;19.016;2022-10-14T19:08:39;72.37;;;33.13;;
58756;SDS011;44527;47.460;19.016;2022-10-14T19:11:42;70.55;;;33.60;;
58756;SDS011;44527;47.460;19.016;2022-10-14T19:14:48;71.72;;;32.13;;
58756;SDS011;44527;47.460;19.016;2022-10-14T19:17:54;72.40;;;32.25;;
58756;SDS011;44527;47.460;19.016;2022-10-14T19:21:05;63.30;;;31.20;;
58756;SDS011;44527;47.460;19.016;2022-10-14T19:24:12;68.55;;;33.30;;
58756;SDS011;44527;47.460;19.016;2022-10-14T19:27:14;67.80;;;33.33;;
58756;SDS011;44527;47.460;19.016;2022-10-14T19:30:17;65.53;;;31.35;;
58756;SDS011;44527;47.460;19.016;2022-10-14T19:33:19;67.55;;;31.20;;